Time;durP1;ratioP1;P1;durP2;ratioP2;P2;SDS_P1;SDS_P2;PMS_P1;PMS_P2;Temp;Humidity;BMP_temperature;BMP_pressure;BME280_temperature;BME280_humidity;BME280_pressure;Samples;Min_cycle;Max_cycle;Signal;HPM_P1;HPM_P2
2021/01/22 00:02:04;;;;;;;1.45;1.20;;;5.50;92.50;;;;;;5002687;28;20046;-56
2021/01/22 00:04:29;;;;;;;3.22;1.30;;;5.50;92.40;;;;;;5009595;28;20068;-57
2021/01/22 00:06:56;;;;;;;2.38;1.40;;;5.50;92.30;;;;;;5012038;28;20517;-56
2021/01/22 00:09:21;;;;;;;2.92;1.52;;;5.50;92.20;;;;;;5011506;28;20046;-56
2021/01/22 00:11:48;;;;;;;2.83;1.70;;;5.40;92.30;;;;;;5012044;28;20053;-57
2021/01/22 00:14:13;;;;;;;4.13;1.80;;;5.40;92.10;;;;;;5011386;28;20521;-55
2021/01/22 00:16:40;;;;;;;2.13;1.27;;;5.30;91.80;;;;;;5009649;28;20037;-55
2021/01/22 00:19:05;;;;;;;1.88;1.20;;;5.30;91.70;;;;;;5011209;28;20049;-56
2021/01/22 00:21:31;;;;;;;2.08;1.15;;;5.20;91.70;;;;;;5011527;28;20394;-55
2021/01/22 00:23:57;;;;;;;1.50;1.13;;;5.10;91.70;;;;;;5008614;28;20045;-55
2021/01/22 00:26:23;;;;;;;3.28;1.23;;;5.10;91.70;;;;;;5011252;28;20048;-57
2021/01/22 00:28:49;;;;;;;2.53;1.00;;;5.00;91.70;;;;;;5007900;28;20037;-55
2021/01/22 00:31:15;;;;;;;2.50;1.02;;;4.90;91.80;;;;;;5008382;28;20180;-56
2021/01/22 00:33:40;;;;;;;0.75;0.75;;;4.90;91.70;;;;;;5010693;28;20038;-55
2021/01/22 00:36:06;;;;;;;1.15;0.90;;;4.90;91.60;;;;;;5011551;28;20075;-56
2021/01/22 00:38:32;;;;;;;1.98;0.57;;;4.80;91.50;;;;;;5010624;28;20080;-57
2021/01/22 00:40:58;;;;;;;2.00;0.90;;;4.80;91.50;;;;;;5012117;28;20045;-56
2021/01/22 00:43:23;;;;;;;0.80;0.80;;;4.70;91.60;;;;;;5006283;28;20069;-56
2021/01/22 00:45:49;;;;;;;0.85;0.80;;;4.70;91.80;;;;;;5011932;28;20467;-57
2021/01/22 00:48:15;;;;;;;2.35;1.20;;;4.70;91.80;;;;;;5010272;28;20077;-57
2021/01/22 00:50:41;;;;;;;1.25;0.75;;;4.70;91.70;;;;;;5011383;28;20084;-58
2021/01/22 00:53:06;;;;;;;2.35;0.80;;;4.70;91.70;;;;;;5010652;28;20034;-56
2021/01/22 00:55:32;;;;;;;1.10;0.82;;;4.70;91.60;;;;;;5011043;28;20042;-58
2021/01/22 00:57:58;;;;;;;2.05;0.90;;;4.60;91.60;;;;;;5003986;28;20034;-55
2021/01/22 01:00:23;;;;;;;0.80;0.80;;;4.70;91.70;;;;;;5011293;28;20041;-55
2021/01/22 01:02:49;;;;;;;0.85;0.68;;;4.60;91.80;;;;;;5001224;28;20068;-54
2021/01/22 01:05:15;;;;;;;1.55;0.80;;;4.60;91.80;;;;;;5011338;28;20045;-56
2021/01/22 01:07:43;;;;;;;0.98;0.68;;;4.60;91.80;;;;;;5001418;28;20042;-57
2021/01/22 01:10:10;;;;;;;1.90;0.90;;;4.60;91.80;;;;;;5010219;28;20042;-55
2021/01/22 01:12:36;;;;;;;0.80;0.70;;;4.60;91.80;;;;;;5001621;28;20034;-57
2021/01/22 01:15:04;;;;;;;1.40;0.65;;;4.50;91.80;;;;;;5010922;28;20045;-56
2021/01/22 01:17:30;;;;;;;0.60;0.60;;;4.50;91.80;;;;;;5009173;28;20099;-56
2021/01/22 01:19:56;;;;;;;2.67;0.90;;;4.50;91.90;;;;;;5010679;28;20478;-57
2021/01/22 01:22:21;;;;;;;1.23;0.88;;;4.50;92.00;;;;;;4997545;28;20038;-57
2021/01/22 01:24:47;;;;;;;1.42;0.90;;;4.40;92.00;;;;;;5009660;28;20183;-55
2021/01/22 01:27:12;;;;;;;2.78;0.90;;;4.40;92.00;;;;;;4991899;28;20490;-55
2021/01/22 01:29:38;;;;;;;1.52;0.70;;;4.40;92.20;;;;;;5009717;28;20112;-55
2021/01/22 01:32:04;;;;;;;0.95;0.85;;;4.40;92.10;;;;;;5008997;28;20042;-57
2021/01/22 01:34:30;;;;;;;0.50;0.50;;;4.40;92.10;;;;;;5011115;28;20100;-57
2021/01/22 01:36:56;;;;;;;2.58;0.73;;;4.30;92.30;;;;;;5009715;28;20502;-54
2021/01/22 01:39:21;;;;;;;1.70;0.80;;;4.30;92.20;;;;;;5009757;28;20049;-56
2021/01/22 01:41:47;;;;;;;1.90;0.60;;;4.30;92.20;;;;;;5009348;28;20042;-56
2021/01/22 01:44:12;;;;;;;0.60;0.52;;;4.40;92.10;;;;;;5010873;28;20042;-55
2021/01/22 01:46:38;;;;;;;0.50;0.47;;;4.40;92.20;;;;;;5010213;28;20066;-55
2021/01/22 01:49:03;;;;;;;0.70;0.57;;;4.30;92.00;;;;;;5010790;28;20046;-57
2021/01/22 01:51:29;;;;;;;0.70;0.60;;;4.30;92.00;;;;;;5010827;28;20041;-56
2021/01/22 01:53:55;;;;;;;3.63;0.80;;;4.30;92.00;;;;;;5009815;28;20061;-55
2021/01/22 01:56:22;;;;;;;1.38;0.60;;;4.30;92.20;;;;;;5008855;28;21612;-57
2021/01/22 01:58:48;;;;;;;1.35;0.68;;;4.20;92.10;;;;;;5004346;28;20072;-56
2021/01/22 02:01:17;;;;;;;0.63;0.40;;;4.20;92.40;;;;;;5012402;28;20417;-56
2021/01/22 02:03:43;;;;;;;0.85;0.30;;;4.20;92.20;;;;;;5010641;28;20053;-58
2021/01/22 02:06:09;;;;;;;1.83;0.68;;;4.10;92.40;;;;;;5014656;28;20046;-57
2021/01/22 02:08:35;;;;;;;2.63;0.60;;;4.20;92.50;;;;;;5014592;28;20395;-56
2021/01/22 02:11:02;;;;;;;1.17;0.60;;;4.20;92.40;;;;;;5014458;28;20189;-56
2021/01/22 02:13:30;;;;;;;3.75;0.80;;;4.10;92.40;;;;;;5009762;28;20038;-56
2021/01/22 02:15:57;;;;;;;2.45;0.65;;;4.10;92.50;;;;;;5010219;28;20130;-57
2021/01/22 02:18:24;;;;;;;3.17;0.63;;;4.10;92.40;;;;;;5001159;28;20041;-57
2021/01/22 02:21:03;;;;;;;3.08;0.70;;;4.20;92.40;;;;;;5014434;28;20482;-56
2021/01/22 02:23:32;;;;;;;2.45;1.15;;;4.20;92.40;;;;;;5000382;28;20334;-56
2021/01/22 02:26:18;;;;;;;2.70;1.15;;;4.30;92.40;;;;;;5007215;28;20053;-56
2021/01/22 02:28:45;;;;;;;4.65;1.67;;;4.30;92.60;;;;;;5002667;28;20045;-57
2021/01/22 02:31:15;;;;;;;1.75;1.23;;;4.40;92.40;;;;;;5013726;28;20049;-56
2021/01/22 02:33:43;;;;;;;3.38;1.30;;;4.30;92.40;;;;;;5007575;28;20042;-56
2021/01/22 02:36:13;;;;;;;3.13;1.40;;;4.30;92.50;;;;;;5013736;28;20041;-57
2021/01/22 02:38:40;;;;;;;3.17;1.70;;;4.30;92.70;;;;;;5012491;28;20282;-57
2021/01/22 02:41:07;;;;;;;6.20;2.05;;;4.30;92.80;;;;;;4999562;28;20101;-56
2021/01/22 02:43:33;;;;;;;4.63;1.88;;;4.30;92.70;;;;;;5011099;28;20038;-56
2021/01/22 02:46:00;;;;;;;5.70;1.60;;;4.30;92.60;;;;;;5013840;28;20156;-56
2021/01/22 02:48:29;;;;;;;2.72;1.63;;;4.30;92.70;;;;;;5005857;28;20050;-56
2021/01/22 02:50:54;;;;;;;3.33;1.70;;;4.40;92.70;;;;;;4996029;28;20088;-56
2021/01/22 02:53:20;;;;;;;5.18;1.98;;;4.40;92.60;;;;;;5012271;28;20042;-57
2021/01/22 02:55:46;;;;;;;6.35;2.20;;;4.40;92.60;;;;;;5012339;28;20058;-57
2021/01/22 02:58:23;;;;;;;5.90;2.70;;;4.40;92.70;;;;;;5013713;28;20042;-56
2021/01/22 03:00:53;;;;;;;5.72;2.60;;;4.40;92.60;;;;;;5012951;28;20545;-56
2021/01/22 03:03:46;;;;;;;6.18;3.08;;;4.40;92.60;;;;;;5008001;28;20081;-57
2021/01/22 03:06:32;;;;;;;6.28;3.35;;;4.40;92.90;;;;;;5012122;28;20042;-56
2021/01/22 03:09:00;;;;;;;7.32;3.70;;;4.40;93.00;;;;;;5014763;28;20418;-56
2021/01/22 03:11:27;;;;;;;6.55;3.70;;;4.40;92.80;;;;;;5011709;28;20505;-56
2021/01/22 03:13:54;;;;;;;7.20;3.53;;;4.40;92.80;;;;;;5011521;28;20045;-56
2021/01/22 03:16:20;;;;;;;5.10;2.90;;;4.40;93.00;;;;;;5013651;28;20120;-57
2021/01/22 03:19:00;;;;;;;8.05;3.60;;;4.40;92.80;;;;;;5011599;28;20068;-56
2021/01/22 03:21:26;;;;;;;6.47;3.00;;;4.50;92.90;;;;;;5005306;28;20046;-57
2021/01/22 03:23:52;;;;;;;4.47;2.75;;;4.40;92.70;;;;;;5012147;28;20056;-57
2021/01/22 03:26:18;;;;;;;4.45;2.83;;;4.40;92.70;;;;;;5011620;28;20096;-57
2021/01/22 03:28:44;;;;;;;6.60;2.95;;;4.40;92.60;;;;;;5013015;28;20053;-57
2021/01/22 03:31:10;;;;;;;5.53;3.17;;;4.50;92.60;;;;;;5011991;28;20060;-57
2021/01/22 03:33:36;;;;;;;4.60;2.63;;;4.40;92.60;;;;;;5010901;28;20164;-57
2021/01/22 03:36:03;;;;;;;5.55;2.80;;;4.40;92.60;;;;;;5012418;28;20072;-56
2021/01/22 03:38:29;;;;;;;7.10;3.20;;;4.30;92.60;;;;;;5012431;28;20064;-57
2021/01/22 03:40:54;;;;;;;8.40;3.00;;;4.30;92.60;;;;;;5011155;28;20062;-57
2021/01/22 03:43:20;;;;;;;5.80;3.17;;;4.30;92.70;;;;;;5008753;28;20050;-57
2021/01/22 03:45:46;;;;;;;7.10;3.38;;;4.20;92.70;;;;;;4995110;28;20046;-57
2021/01/22 03:48:11;;;;;;;6.05;3.55;;;4.20;92.70;;;;;;5011823;28;20104;-57
2021/01/22 03:50:37;;;;;;;7.35;3.88;;;4.20;92.70;;;;;;5011498;28;20034;-56
2021/01/22 03:53:03;;;;;;;9.20;3.67;;;4.20;92.70;;;;;;5011300;28;20046;-55
2021/01/22 03:55:28;;;;;;;7.00;3.47;;;4.20;92.70;;;;;;4996194;28;20037;-54
2021/01/22 03:57:55;;;;;;;7.47;3.67;;;4.20;92.80;;;;;;5014671;28;20525;-55
2021/01/22 04:00:21;;;;;;;7.45;3.50;;;4.20;92.70;;;;;;5012664;28;20453;-56
2021/01/22 04:02:46;;;;;;;10.02;4.13;;;4.20;92.90;;;;;;5012137;28;20049;-56
2021/01/22 04:05:12;;;;;;;10.88;3.65;;;4.10;92.90;;;;;;5013641;28;20038;-58
2021/01/22 04:07:38;;;;;;;8.20;4.00;;;4.20;92.90;;;;;;5008066;28;20169;-56
2021/01/22 04:10:06;;;;;;;6.95;3.55;;;4.20;92.90;;;;;;4995815;28;20490;-57
2021/01/22 04:12:31;;;;;;;10.02;3.85;;;4.20;93.00;;;;;;5011345;28;20065;-57
2021/01/22 04:14:57;;;;;;;7.72;3.40;;;4.10;93.10;;;;;;5012285;28;20096;-56
2021/01/22 04:17:24;;;;;;;8.65;3.58;;;4.20;93.00;;;;;;5010612;28;20441;-57
2021/01/22 04:19:49;;;;;;;8.70;3.80;;;4.20;93.10;;;;;;5008372;28;20552;-55
2021/01/22 04:22:15;;;;;;;9.85;4.13;;;4.10;93.00;;;;;;5011119;28;20128;-57
2021/01/22 04:24:40;;;;;;;10.20;4.03;;;4.20;93.10;;;;;;4999746;28;20046;-54
2021/01/22 04:27:06;;;;;;;9.38;4.32;;;4.20;93.10;;;;;;5007658;28;20069;-57
2021/01/22 04:29:31;;;;;;;8.63;4.60;;;4.10;93.10;;;;;;5011878;28;20506;-56
2021/01/22 04:31:57;;;;;;;13.52;5.55;;;4.20;93.20;;;;;;5010556;28;20117;-56
2021/01/22 04:34:23;;;;;;;11.00;5.60;;;4.20;93.10;;;;;;5012208;28;20487;-57
2021/01/22 04:36:49;;;;;;;12.82;5.90;;;4.20;93.10;;;;;;5004542;28;20092;-56
2021/01/22 04:39:15;;;;;;;14.15;6.57;;;4.20;93.00;;;;;;5011891;28;20052;-57
2021/01/22 04:41:40;;;;;;;15.18;7.18;;;4.20;93.20;;;;;;5010597;28;20037;-57
2021/01/22 04:44:06;;;;;;;14.23;7.10;;;4.20;93.20;;;;;;5011341;28;20454;-57
2021/01/22 04:46:36;;;;;;;14.90;7.45;;;4.10;93.30;;;;;;5010778;28;20048;-57
2021/01/22 04:49:03;;;;;;;15.95;8.30;;;4.10;93.30;;;;;;4994834;28;20490;-57
2021/01/22 04:51:38;;;;;;;14.98;7.78;;;4.20;93.30;;;;;;5011027;28;20053;-57
2021/01/22 04:54:28;;;;;;;20.92;8.95;;;4.10;93.30;;;;;;5007721;28;20044;-57
2021/01/22 04:56:58;;;;;;;19.85;8.32;;;4.20;93.30;;;;;;5005841;28;20041;-56
2021/01/22 04:59:48;;;;;;;17.83;9.10;;;4.20;93.40;;;;;;5010420;28;20037;-57
2021/01/22 05:02:14;;;;;;;19.00;9.13;;;4.10;93.40;;;;;;5010742;28;20108;-56
2021/01/22 05:04:40;;;;;;;22.08;9.48;;;4.10;93.40;;;;;;5008650;28;20130;-57
2021/01/22 05:07:08;;;;;;;22.55;9.85;;;4.10;93.40;;;;;;5004984;28;20481;-58
2021/01/22 05:09:34;;;;;;;16.25;8.35;;;4.10;93.40;;;;;;5010810;28;20072;-57
2021/01/22 05:12:00;;;;;;;20.00;10.13;;;4.10;93.40;;;;;;5010603;28;20097;-57
2021/01/22 05:14:27;;;;;;;21.80;10.30;;;4.10;93.60;;;;;;5009324;28;20435;-58
2021/01/22 05:17:04;;;;;;;18.25;9.25;;;4.20;93.40;;;;;;5001678;28;20494;-57
2021/01/22 05:19:30;;;;;;;17.70;8.57;;;4.30;93.50;;;;;;5010383;28;20402;-58
2021/01/22 05:21:56;;;;;;;19.45;9.75;;;4.20;93.40;;;;;;5005857;28;20030;-57
2021/01/22 05:24:24;;;;;;;20.63;10.13;;;4.10;93.30;;;;;;5011134;28;20092;-58
2021/01/22 05:27:07;;;;;;;19.02;8.50;;;4.10;93.50;;;;;;5010511;28;20034;-58
2021/01/22 05:29:33;;;;;;;;;;;4.20;93.40;;;;;;5010888;28;20851;-58
2021/01/22 05:31:59;;;;;;;20.27;8.45;;;4.10;93.40;;;;;;4999982;28;19925;-54
2021/01/22 05:34:44;;;;;;;14.77;8.20;;;4.20;93.50;;;;;;5009776;28;20050;-55
2021/01/22 05:37:09;;;;;;;17.88;8.80;;;4.10;93.30;;;;;;5005303;28;20054;-53
2021/01/22 05:39:35;;;;;;;14.90;8.38;;;4.10;93.30;;;;;;5008107;28;20091;-52
2021/01/22 05:42:01;;;;;;;16.25;8.13;;;4.00;93.40;;;;;;5009065;28;20121;-53
2021/01/22 05:44:26;;;;;;;18.58;7.85;;;4.00;93.40;;;;;;5007864;28;20034;-53
2021/01/22 05:47:02;;;;;;;15.02;7.82;;;4.00;93.40;;;;;;5010493;28;20049;-56
2021/01/22 05:49:28;;;;;;;14.27;7.55;;;4.10;93.40;;;;;;5014082;28;20061;-56
2021/01/22 05:51:54;;;;;;;14.75;7.65;;;4.10;93.20;;;;;;5007376;28;20161;-57
2021/01/22 05:54:38;;;;;;;18.17;7.53;;;4.10;93.30;;;;;;5010615;28;20049;-57
2021/01/22 05:57:05;;;;;;;13.60;7.10;;;4.00;93.20;;;;;;5010026;28;20134;-56
2021/01/22 05:59:34;;;;;;;16.20;7.78;;;4.00;93.20;;;;;;5011088;28;20478;-56
2021/01/22 06:02:26;;;;;;;14.90;7.15;;;3.90;93.20;;;;;;5006623;28;20168;-56
2021/01/22 06:05:08;;;;;;;14.02;7.22;;;3.90;93.30;;;;;;5006901;28;20482;-57
2021/01/22 06:07:36;;;;;;;15.98;7.18;;;3.90;93.30;;;;;;4992176;28;20050;-57
2021/01/22 06:10:18;;;;;;;18.00;8.13;;;3.90;93.30;;;;;;5010365;28;20045;-54
2021/01/22 06:12:48;;;;;;;15.95;7.90;;;3.80;93.20;;;;;;5006529;28;20038;-54
2021/01/22 06:15:16;;;;;;;14.25;7.75;;;3.70;93.30;;;;;;5009839;28;20129;-58
2021/01/22 06:17:52;;;;;;;16.60;7.32;;;3.70;93.30;;;;;;5011092;28;20104;-57
2021/01/22 06:20:23;;;;;;;15.75;8.30;;;3.70;93.40;;;;;;5010088;28;20494;-54
2021/01/22 06:23:26;;;;;;;17.48;7.97;;;3.60;93.40;;;;;;5011398;28;20041;-57
2021/01/22 06:25:54;;;;;;;13.10;7.15;;;3.60;93.50;;;;;;4993865;28;20053;-58
2021/01/22 06:28:22;;;;;;;13.20;6.60;;;3.60;93.40;;;;;;5004029;28;20096;-57
2021/01/22 06:30:48;;;;;;;15.38;6.72;;;3.60;93.40;;;;;;5004934;28;20549;-57
2021/01/22 06:33:15;;;;;;;16.05;6.60;;;3.70;93.50;;;;;;5007635;28;20137;-58
2021/01/22 06:35:42;;;;;;;10.15;6.07;;;3.60;93.50;;;;;;4994837;28;20054;-57
2021/01/22 06:38:08;;;;;;;13.27;5.95;;;3.60;93.50;;;;;;5005767;28;20042;-57
2021/01/22 06:40:34;;;;;;;9.48;5.50;;;3.60;93.50;;;;;;5009458;28;20466;-56
2021/01/22 06:43:00;;;;;;;11.77;6.35;;;3.60;93.50;;;;;;5009484;28;20033;-57
2021/01/22 06:45:26;;;;;;;10.60;6.05;;;3.70;93.50;;;;;;5004213;28;20422;-55
2021/01/22 06:48:05;;;;;;;11.82;5.57;;;3.70;93.40;;;;;;5007443;28;20052;-58
2021/01/22 06:50:32;;;;;;;11.32;5.22;;;3.70;93.40;;;;;;5001919;28;20046;-57
2021/01/22 06:53:08;;;;;;;14.40;5.38;;;3.60;93.40;;;;;;4994149;28;20514;-57
2021/01/22 06:55:59;;;;;;;13.98;5.60;;;3.60;93.40;;;;;;5013323;28;20042;-58
2021/01/22 06:58:30;;;;;;;13.02;5.47;;;3.70;93.30;;;;;;5010773;28;20125;-58
2021/01/22 07:01:00;;;;;;;13.50;5.95;;;3.60;93.30;;;;;;5009343;28;20510;-56
2021/01/22 07:03:35;;;;;;;12.45;5.55;;;3.60;93.40;;;;;;5011690;28;20041;-57
2021/01/22 07:06:05;;;;;;;11.52;5.50;;;3.60;93.40;;;;;;5005638;28;20096;-58
2021/01/22 07:08:49;;;;;;;11.35;5.22;;;3.70;93.40;;;;;;5003022;28;20100;-57
2021/01/22 07:11:16;;;;;;;11.68;6.00;;;3.70;93.40;;;;;;5010941;28;20038;-58
2021/01/22 07:13:47;;;;;;;12.02;5.75;;;3.70;93.30;;;;;;5011409;28;20077;-58
2021/01/22 07:16:19;;;;;;;18.92;5.95;;;3.70;93.30;;;;;;5009229;28;20057;-57
2021/01/22 07:18:45;;;;;;;14.95;5.90;;;3.70;93.20;;;;;;5013315;28;20490;-58
2021/01/22 07:21:29;;;;;;;15.52;6.65;;;3.70;93.20;;;;;;5010353;28;20042;-55
2021/01/22 07:24:03;;;;;;;17.27;6.20;;;3.70;93.10;;;;;;5010309;28;20038;-58
2021/01/22 07:26:41;;;;;;;12.85;6.57;;;3.70;93.20;;;;;;5008962;28;20433;-57
2021/01/22 07:29:29;;;;;;;12.55;6.43;;;3.70;93.20;;;;;;5007710;28;20104;-55
2021/01/22 07:31:56;;;;;;;19.95;7.53;;;3.70;93.20;;;;;;5010309;28;20046;-58
2021/01/22 07:34:37;;;;;;;17.60;7.47;;;3.70;93.30;;;;;;5011661;28;20486;-58
2021/01/22 07:37:05;;;;;;;18.60;7.93;;;3.80;93.30;;;;;;5012173;28;20124;-58
2021/01/22 07:39:31;;;;;;;18.98;7.50;;;3.80;93.10;;;;;;5008590;28;20132;-58
2021/01/22 07:42:04;;;;;;;12.32;7.85;;;3.80;93.10;;;;;;5008354;28;20421;-57
2021/01/22 07:44:30;;;;;;;18.70;8.55;;;3.80;93.10;;;;;;5012757;28;20421;-58
2021/01/22 07:46:56;;;;;;;15.07;7.88;;;3.90;93.10;;;;;;5010379;28;20049;-58
2021/01/22 07:49:21;;;;;;;19.85;8.35;;;3.90;93.10;;;;;;5010028;28;20042;-58
2021/01/22 07:51:47;;;;;;;24.75;8.40;;;3.90;92.90;;;;;;5000286;28;20041;-57
2021/01/22 07:54:13;;;;;;;22.58;9.05;;;3.90;93.00;;;;;;5009600;28;20078;-58
2021/01/22 07:56:42;;;;;;;19.05;7.50;;;3.90;93.00;;;;;;5011542;28;20041;-58
2021/01/22 07:59:10;;;;;;;17.77;8.10;;;3.90;93.10;;;;;;5010569;28;20448;-58
2021/01/22 08:01:36;;;;;;;17.35;8.48;;;3.80;93.10;;;;;;5010664;28;20042;-58
2021/01/22 08:04:02;;;;;;;18.77;8.07;;;4.00;93.20;;;;;;5008471;28;20065;-58
2021/01/22 08:06:48;;;;;;;18.48;7.85;;;3.80;93.10;;;;;;5008974;28;20168;-58
2021/01/22 08:09:14;;;;;;;;;;;3.80;93.10;;;;;;5010527;28;20048;-58
2021/01/22 08:11:40;;;;;;;16.88;7.70;;;3.80;93.20;;;;;;5009538;28;20000;-58
2021/01/22 08:14:07;;;;;;;22.05;8.68;;;3.80;93.20;;;;;;5011140;28;20494;-59
2021/01/22 08:16:34;;;;;;;17.77;8.23;;;3.80;93.20;;;;;;5011712;28;20045;-59
2021/01/22 08:19:00;;;;;;;20.77;8.55;;;3.80;93.10;;;;;;5008791;28;20065;-58
2021/01/22 08:21:30;;;;;;;15.32;8.30;;;3.80;93.20;;;;;;5008967;28;20555;-56
2021/01/22 08:23:58;;;;;;;20.30;8.90;;;3.90;93.10;;;;;;5010294;28;20096;-58
2021/01/22 08:26:26;;;;;;;16.80;8.35;;;3.90;93.10;;;;;;5007116;28;20078;-57
2021/01/22 08:28:54;;;;;;;25.20;9.60;;;4.00;93.10;;;;;;5009069;28;20034;-57
2021/01/22 08:31:20;;;;;;;20.55;9.35;;;4.00;92.90;;;;;;5013817;28;20070;-58
2021/01/22 08:33:47;;;;;;;22.50;9.57;;;4.00;93.00;;;;;;5009936;28;20065;-57
2021/01/22 08:36:13;;;;;;;18.35;8.85;;;4.00;93.00;;;;;;5008454;28;20042;-57
2021/01/22 08:38:39;;;;;;;18.77;9.57;;;4.00;93.00;;;;;;4998223;28;20046;-57
2021/01/22 08:41:05;;;;;;;17.15;9.48;;;4.00;93.20;;;;;;5003351;28;20046;-57
2021/01/22 08:43:50;;;;;;;20.15;10.57;;;4.00;93.10;;;;;;5008895;28;20449;-57
2021/01/22 08:46:16;;;;;;;23.38;10.90;;;4.00;93.10;;;;;;5003877;28;20482;-58
2021/01/22 08:48:42;;;;;;;19.73;10.63;;;4.10;93.10;;;;;;5010645;28;20046;-57
2021/01/22 08:51:08;;;;;;;25.40;10.68;;;4.10;93.10;;;;;;5003658;28;20117;-57
2021/01/22 08:53:34;;;;;;;25.30;11.07;;;4.20;93.40;;;;;;5004737;28;20129;-57
2021/01/22 08:56:16;;;;;;;27.23;11.05;;;4.10;93.10;;;;;;5008213;28;20040;-57
2021/01/22 08:59:04;;;;;;;29.33;11.00;;;4.10;93.10;;;;;;4999515;28;20398;-58
2021/01/22 09:01:49;;;;;;;23.20;10.85;;;4.10;93.20;;;;;;5005872;28;20045;-57
2021/01/22 09:04:26;;;;;;;18.77;9.80;;;4.10;93.10;;;;;;5007949;28;20041;-57
2021/01/22 09:06:57;;;;;;;28.25;10.82;;;4.20;93.20;;;;;;5008956;28;20042;-57
2021/01/22 09:09:38;;;;;;;27.20;11.38;;;4.20;93.20;;;;;;5009207;28;20037;-57
2021/01/22 09:12:09;;;;;;;24.40;11.60;;;4.20;93.10;;;;;;5010591;28;20046;-57
2021/01/22 09:14:59;;;;;;;22.63;10.63;;;4.20;93.00;;;;;;5011290;28;20053;-57
2021/01/22 09:17:36;;;;;;;27.25;9.98;;;4.20;93.10;;;;;;5005256;28;20045;-58
2021/01/22 09:20:14;;;;;;;21.73;10.57;;;4.30;93.00;;;;;;5010851;28;20041;-58
2021/01/22 09:22:41;;;;;;;28.85;10.52;;;4.30;93.10;;;;;;5006961;28;20045;-58
2021/01/22 09:25:08;;;;;;;23.65;10.30;;;4.30;93.00;;;;;;4999873;28;20045;-58
2021/01/22 09:27:37;;;;;;;25.75;10.68;;;4.30;93.00;;;;;;5005327;28;20045;-58
2021/01/22 09:30:05;;;;;;;20.13;10.82;;;4.40;92.90;;;;;;5000428;28;20038;-58
2021/01/22 09:32:31;;;;;;;33.08;10.68;;;4.30;92.80;;;;;;5009615;28;20129;-58
2021/01/22 09:34:57;;;;;;;22.92;10.38;;;4.20;92.90;;;;;;5006544;28;20045;-58
2021/01/22 09:37:23;;;;;;;22.33;10.63;;;4.20;92.90;;;;;;5008000;28;20052;-58
2021/01/22 09:39:49;;;;;;;24.42;10.48;;;4.30;92.80;;;;;;5010380;28;20068;-58
2021/01/22 09:42:15;;;;;;;24.83;10.15;;;4.30;92.90;;;;;;5007440;28;20045;-58
2021/01/22 09:44:41;;;;;;;24.55;10.75;;;4.30;92.80;;;;;;4996307;28;20046;-58
2021/01/22 09:47:07;;;;;;;24.90;10.88;;;4.30;92.70;;;;;;5010387;28;20461;-58
2021/01/22 09:49:32;;;;;;;19.40;11.00;;;4.20;92.80;;;;;;5010647;28;20082;-58
2021/01/22 09:51:58;;;;;;;23.58;11.57;;;4.30;92.60;;;;;;5004917;28;20479;-58
2021/01/22 09:54:24;;;;;;;28.02;11.05;;;4.30;92.80;;;;;;5010706;28;20050;-58
2021/01/22 09:56:49;;;;;;;28.02;11.15;;;4.30;92.80;;;;;;5000519;28;20058;-58
2021/01/22 09:59:15;;;;;;;28.23;11.90;;;4.30;92.90;;;;;;5011750;28;20046;-58
2021/01/22 10:01:41;;;;;;;22.95;11.35;;;4.20;92.90;;;;;;5009614;28;20080;-58
2021/01/22 10:04:06;;;;;;;24.63;11.15;;;4.30;93.00;;;;;;5009957;28;20037;-58
2021/01/22 10:06:32;;;;;;;28.98;10.35;;;4.30;93.00;;;;;;5009281;28;20042;-57
2021/01/22 10:08:58;;;;;;;24.15;9.95;;;4.30;93.00;;;;;;5010338;28;20092;-58
2021/01/22 10:11:24;;;;;;;22.23;8.82;;;4.40;93.10;;;;;;5010197;28;20050;-58
2021/01/22 10:13:53;;;;;;;25.90;9.40;;;4.50;93.10;;;;;;5009602;28;20049;-58
2021/01/22 10:16:23;;;;;;;20.70;9.52;;;4.50;93.10;;;;;;5000153;28;20058;-59
2021/01/22 10:18:53;;;;;;;20.02;7.82;;;4.60;93.00;;;;;;5004609;28;20100;-58
2021/01/22 10:21:23;;;;;;;18.20;8.13;;;4.60;93.00;;;;;;5010453;28;20046;-58
2021/01/22 10:23:51;;;;;;;17.73;7.53;;;4.70;93.00;;;;;;5001818;28;20406;-58
2021/01/22 10:26:17;;;;;;;21.02;8.00;;;4.80;92.90;;;;;;5003858;28;20041;-58
2021/01/22 10:28:43;;;;;;;16.92;7.50;;;5.00;92.80;;;;;;5006642;28;20057;-58
2021/01/22 10:31:09;;;;;;;15.65;7.25;;;5.00;92.70;;;;;;5013298;28;20046;-58
2021/01/22 10:33:36;;;;;;;17.38;6.32;;;5.10;92.60;;;;;;5012825;28;20049;-58
2021/01/22 10:36:02;;;;;;;21.58;6.18;;;5.20;92.50;;;;;;4999774;28;20093;-58
2021/01/22 10:38:28;;;;;;;17.25;5.65;;;5.30;91.90;;;;;;5011562;28;20058;-58
2021/01/22 10:40:54;;;;;;;18.67;6.18;;;5.40;91.90;;;;;;5004355;28;20054;-58
2021/01/22 10:43:21;;;;;;;21.38;6.28;;;5.40;92.00;;;;;;5013363;28;20049;-58
2021/01/22 10:45:47;;;;;;;16.50;5.78;;;5.40;91.80;;;;;;5011679;28;20061;-57
2021/01/22 10:48:15;;;;;;;19.83;6.75;;;5.50;91.80;;;;;;5010302;28;20049;-55
2021/01/22 10:50:41;;;;;;;19.40;6.40;;;5.50;91.80;;;;;;5013129;28;20038;-58
2021/01/22 10:53:07;;;;;;;14.07;5.70;;;5.60;91.90;;;;;;4997698;28;20034;-57
2021/01/22 10:55:33;;;;;;;17.27;5.32;;;5.60;91.70;;;;;;5010949;28;20048;-58
2021/01/22 10:57:58;;;;;;;15.48;5.13;;;5.60;91.70;;;;;;5009700;28;20054;-58
2021/01/22 11:00:24;;;;;;;12.70;5.00;;;5.60;91.60;;;;;;5009323;28;20046;-58
2021/01/22 11:02:49;;;;;;;13.93;4.60;;;5.70;91.30;;;;;;5002503;28;20046;-58
2021/01/22 11:05:15;;;;;;;17.35;4.75;;;5.80;90.80;;;;;;5008866;28;20417;-58
2021/01/22 11:07:41;;;;;;;14.68;4.95;;;5.80;91.00;;;;;;5011809;28;20046;-58
2021/01/22 11:10:07;;;;;;;17.95;4.15;;;5.90;90.90;;;;;;5013264;28;20092;-59
2021/01/22 11:12:33;;;;;;;14.27;3.60;;;5.90;90.60;;;;;;5012157;28;20046;-59
2021/01/22 11:14:58;;;;;;;17.70;4.28;;;6.00;90.70;;;;;;5006396;28;20465;-58
2021/01/22 11:17:24;;;;;;;18.52;4.13;;;6.00;90.60;;;;;;5009344;28;20510;-59
2021/01/22 11:19:49;;;;;;;19.38;4.53;;;6.00;90.70;;;;;;5010084;28;20372;-58
2021/01/22 11:22:15;;;;;;;12.95;3.90;;;6.10;90.50;;;;;;5011108;28;20510;-58
2021/01/22 11:24:41;;;;;;;14.23;4.53;;;6.50;90.50;;;;;;5011330;28;20041;-58
2021/01/22 11:27:06;;;;;;;13.25;3.40;;;6.20;90.20;;;;;;5013240;28;20069;-59
2021/01/22 11:29:32;;;;;;;15.73;4.20;;;6.20;90.30;;;;;;5002622;28;20133;-58
2021/01/22 11:31:58;;;;;;;13.23;3.92;;;6.30;90.10;;;;;;5008628;28;20049;-58
2021/01/22 11:34:23;;;;;;;18.55;4.00;;;6.30;90.30;;;;;;5008354;28;20049;-58
2021/01/22 11:36:49;;;;;;;16.17;4.05;;;6.30;89.90;;;;;;5011631;28;20409;-58
2021/01/22 11:39:14;;;;;;;13.15;3.80;;;6.30;89.80;;;;;;5007991;28;20038;-58
2021/01/22 11:41:41;;;;;;;12.00;4.40;;;6.30;88.80;;;;;;5011274;28;20639;-58
2021/01/22 11:44:09;;;;;;;16.42;4.00;;;6.20;89.50;;;;;;5012010;28;20038;-57
2021/01/22 11:46:35;;;;;;;16.02;4.38;;;6.10;89.60;;;;;;5010893;28;20073;-58
2021/01/22 11:49:01;;;;;;;17.63;4.30;;;6.10;90.00;;;;;;5006327;28;20050;-58
2021/01/22 11:51:27;;;;;;;16.38;4.10;;;6.10;89.70;;;;;;5003456;28;20088;-57
2021/01/22 11:53:52;;;;;;;13.85;3.80;;;6.10;89.80;;;;;;5006708;28;20056;-58
2021/01/22 11:56:18;;;;;;;14.70;4.07;;;6.20;89.40;;;;;;5006041;28;20073;-56
2021/01/22 11:58:43;;;;;;;17.92;3.50;;;6.10;89.60;;;;;;5006122;28;20036;-58
2021/01/22 12:01:09;;;;;;;16.15;3.70;;;6.10;89.90;;;;;;5006382;28;20089;-58
2021/01/22 12:03:35;;;;;;;18.27;3.10;;;6.30;89.50;;;;;;5011528;28;20498;-58
2021/01/22 12:06:00;;;;;;;15.65;4.15;;;6.40;89.20;;;;;;5008320;28;20041;-58
2021/01/22 12:08:26;;;;;;;10.73;3.38;;;6.40;88.70;;;;;;5011141;28;20125;-59
2021/01/22 12:10:51;;;;;;;13.82;3.72;;;6.40;88.80;;;;;;5007936;28;20034;-58
2021/01/22 12:13:17;;;;;;;10.07;3.30;;;6.50;88.60;;;;;;5004174;28;20081;-58
2021/01/22 12:15:43;;;;;;;15.25;3.88;;;6.50;88.50;;;;;;5011392;28;20479;-55
2021/01/22 12:18:08;;;;;;;10.23;3.55;;;6.60;88.70;;;;;;5011735;28;20044;-58
2021/01/22 12:20:34;;;;;;;12.30;3.83;;;6.50;88.00;;;;;;5012060;28;20510;-58
2021/01/22 12:23:00;;;;;;;16.70;3.47;;;6.60;89.00;;;;;;5011140;28;20068;-58
2021/01/22 12:25:25;;;;;;;14.55;3.83;;;6.60;88.80;;;;;;5011701;28;20195;-58
2021/01/22 12:27:51;;;;;;;13.82;3.72;;;6.60;88.10;;;;;;5011420;28;20046;-58
2021/01/22 12:30:17;;;;;;;15.30;4.35;;;6.60;88.10;;;;;;5008940;28;20189;-58
2021/01/22 12:32:42;;;;;;;18.30;3.45;;;6.60;88.10;;;;;;5011479;28;20109;-59
2021/01/22 12:35:08;;;;;;;13.45;3.40;;;6.70;88.30;;;;;;5011320;28;20145;-58
2021/01/22 12:37:34;;;;;;;13.30;3.72;;;6.70;88.20;;;;;;5011261;28;20061;-58
2021/01/22 12:40:00;;;;;;;14.52;3.72;;;6.70;87.50;;;;;;5010749;28;20046;-59
2021/01/22 12:42:26;;;;;;;13.98;4.28;;;6.60;87.70;;;;;;5003064;28;20042;-57
2021/01/22 12:44:51;;;;;;;13.13;3.15;;;6.60;88.40;;;;;;5006346;28;20417;-53
2021/01/22 12:47:17;;;;;;;10.88;3.30;;;6.70;87.80;;;;;;5005767;28;20096;-58
2021/01/22 12:49:42;;;;;;;13.38;3.60;;;6.60;88.20;;;;;;5011432;28;20030;-56
2021/01/22 12:52:08;;;;;;;17.13;3.22;;;6.70;87.90;;;;;;5005695;28;20045;-58
2021/01/22 12:54:34;;;;;;;15.45;3.45;;;6.70;88.30;;;;;;5010868;28;20033;-56
2021/01/22 12:56:59;;;;;;;11.27;3.25;;;6.70;88.50;;;;;;5010658;28;20107;-55